createdAt,value
2018-09-13T00:00:42.951Z,99332.09
2018-09-13T00:03:11.667Z,99336.53
2018-09-13T00:05:40.615Z,99334.98
2018-09-13T00:08:09.280Z,99338.26
2018-09-13T00:10:38.013Z,99339.58
2018-09-13T00:13:06.649Z,99346.64
2018-09-13T00:15:35.381Z,99345.94
2018-09-13T00:18:04.059Z,99353.96
2018-09-13T00:20:32.878Z,99365.20
2018-09-13T00:23:01.835Z,99364.38
2018-09-13T00:25:30.818Z,99363.11
2018-09-13T00:27:59.506Z,99367.91
2018-09-13T00:30:28.266Z,99368.75
2018-09-13T00:32:56.932Z,99376.92
2018-09-13T00:35:25.704Z,99379.33
2018-09-13T00:37:54.439Z,99381.00
2018-09-13T00:40:23.405Z,99380.05
2018-09-13T00:42:52.410Z,99385.44
2018-09-13T00:45:21.133Z,99386.04
2018-09-13T00:47:49.894Z,99389.66
2018-09-13T00:50:18.708Z,99396.57
2018-09-13T00:52:47.434Z,99392.86
2018-09-13T00:55:16.250Z,99394.53
2018-09-13T00:57:45.197Z,99395.48
2018-09-13T01:00:13.890Z,99398.48
2018-09-13T01:02:42.687Z,99407.22
2018-09-13T01:05:11.518Z,99402.98
2018-09-13T01:07:40.526Z,99405.38
2018-09-13T01:10:09.196Z,99411.23
2018-09-13T01:12:37.855Z,99412.63
2018-09-13T01:15:06.912Z,99413.34
2018-09-13T01:17:35.649Z,99422.52
2018-09-13T01:20:04.446Z,99425.27
2018-09-13T01:22:33.202Z,99421.20
2018-09-13T01:25:01.799Z,99421.43
2018-09-13T01:27:30.591Z,99432.40
2018-09-13T01:29:59.234Z,99432.40
2018-09-13T01:32:27.856Z,99432.27
2018-09-13T01:34:56.572Z,99438.23
2018-09-13T01:37:25.470Z,99438.94
2018-09-13T01:39:54.463Z,99439.38
2018-09-13T01:42:23.576Z,99450.98
2018-09-13T01:44:52.387Z,99450.73
2018-09-13T01:47:21.324Z,99449.89
2018-09-13T01:49:49.931Z,99456.33
2018-09-13T01:52:18.741Z,99466.14
2018-09-13T01:54:47.406Z,99464.83
2018-09-13T01:57:16.131Z,99465.38
2018-09-13T01:59:45.240Z,99470.05
2018-09-13T02:02:14.013Z,99465.08
2018-09-13T02:04:42.743Z,99475.02
2018-09-13T02:07:11.484Z,99476.09
2018-09-13T02:09:40.179Z,99484.83
2018-09-13T02:12:08.959Z,99483.71
2018-09-13T02:14:37.789Z,99483.71
2018-09-13T02:17:06.659Z,99480.18
2018-09-13T02:19:35.340Z,99488.80
2018-09-13T02:22:04.258Z,99485.56
2018-09-13T02:24:33.000Z,99485.79
2018-09-13T02:27:01.687Z,99487.79
2018-09-13T02:29:30.415Z,99495.22
2018-09-13T02:31:59.266Z,99501.56
2018-09-13T02:34:28.045Z,99497.13
2018-09-13T02:36:56.665Z,99499.48
2018-09-13T02:39:25.399Z,99500.66
2018-09-13T02:41:54.112Z,99507.36
2018-09-13T02:44:23.054Z,99509.52
2018-09-13T02:46:51.919Z,99508.52
2018-09-13T02:49:21.021Z,99486.34
2018-09-13T02:51:49.583Z,99514.25
2018-09-13T02:54:18.404Z,99519.89
2018-09-13T02:56:47.358Z,99519.38
2018-09-13T02:59:16.353Z,99519.89
2018-09-13T03:01:45.025Z,99522.37
2018-09-13T03:04:13.730Z,99534.59
2018-09-13T03:06:42.639Z,99531.83
2018-09-13T03:09:13.178Z,99538.30
2018-09-13T03:11:43.273Z,99542.33
2018-09-13T03:14:12.089Z,99543.16
2018-09-13T03:16:41.166Z,99547.70
2018-09-13T03:19:10.095Z,99566.02
2018-09-13T03:21:38.712Z,99564.02
2018-09-13T03:24:07.625Z,99563.38
2018-09-13T03:26:36.373Z,99566.02
2018-09-13T03:29:05.414Z,99567.98
2018-09-13T03:31:34.406Z,99578.89
2018-09-13T03:34:03.614Z,99581.05
2018-09-13T03:36:32.486Z,99588.61
2018-09-13T03:39:01.172Z,99589.09
2018-09-13T03:41:30.127Z,99594.57
2018-09-13T03:43:58.910Z,99595.64
2018-09-13T03:46:27.743Z,99597.92
2018-09-13T03:48:56.526Z,99600.56
2018-09-13T03:51:25.236Z,99599.95
2018-09-13T03:53:54.029Z,99609.19
2018-09-13T03:56:22.914Z,99611.11
2018-09-13T03:58:51.836Z,99619.39
2018-09-13T04:01:20.820Z,99623.58
2018-09-13T04:03:49.724Z,99625.09
2018-09-13T04:06:18.449Z,99621.27
2018-09-13T04:08:47.388Z,99635.17
2018-09-13T04:11:16.202Z,99635.53
2018-09-13T04:13:45.226Z,99643.45
2018-09-13T04:16:14.024Z,99641.52
2018-09-13T04:18:43.304Z,99641.39
2018-09-13T04:21:11.867Z,99621.60
2018-09-13T04:23:40.777Z,99645.36
2018-09-13T04:26:09.420Z,99652.63
2018-09-13T04:28:38.363Z,99657.31
2018-09-13T04:31:07.105Z,99661.98
2018-09-13T04:33:36.051Z,99666.14
2018-09-13T04:36:04.803Z,99669.27
2018-09-13T04:38:33.484Z,99680.44
2018-09-13T04:41:02.161Z,99679.35
2018-09-13T04:43:31.115Z,99679.70
2018-09-13T04:46:00.013Z,99688.19
2018-09-13T04:48:29.050Z,99692.38
2018-09-13T04:50:57.938Z,99698.70
2018-09-13T04:53:26.907Z,99702.66
2018-09-13T04:55:55.762Z,99706.62
2018-09-13T04:58:24.726Z,99710.94
2018-09-13T05:00:54.292Z,99692.80
2018-09-13T05:03:23.271Z,99718.13
2018-09-13T05:05:52.578Z,99724.24
2018-09-13T05:08:21.426Z,99729.84
2018-09-13T05:10:50.878Z,99734.75
2018-09-13T05:13:20.300Z,99735.11
2018-09-13T05:15:49.647Z,99740.23
2018-09-13T05:18:18.775Z,99736.44
2018-09-13T05:20:48.092Z,99751.95
2018-09-13T05:23:17.395Z,99760.10
2018-09-13T05:25:47.212Z,99753.85
2018-09-13T05:28:16.578Z,99761.66
2018-09-13T05:30:46.371Z,99761.85
2018-09-13T05:33:15.781Z,99770.29
2018-09-13T05:35:45.076Z,99766.58
2018-09-13T05:38:14.621Z,99775.72
2018-09-13T05:40:44.079Z,99782.33
2018-09-13T05:43:13.484Z,99794.49
2018-09-13T05:45:43.164Z,99790.30
2018-09-13T05:48:12.456Z,99799.77
2018-09-13T05:50:41.628Z,99804.84
2018-09-13T05:53:11.981Z,99806.39
2018-09-13T05:55:41.368Z,99796.56
2018-09-13T05:58:10.963Z,99803.37
2018-09-13T06:00:40.474Z,99804.64
2018-09-13T06:03:09.856Z,99813.17
2018-09-13T06:05:39.035Z,99817.08
2018-09-13T06:08:08.602Z,99819.78
2018-09-13T06:10:38.314Z,99826.34
2018-09-13T06:13:07.637Z,99824.89
2018-09-13T06:15:37.016Z,99824.95
2018-09-13T06:18:06.233Z,99828.97
2018-09-13T06:20:35.576Z,99829.17
2018-09-13T06:23:05.060Z,99829.81
2018-09-13T06:25:34.577Z,99832.02
2018-09-13T06:28:03.867Z,99826.67
2018-09-13T06:30:33.287Z,99826.89
2018-09-13T06:33:02.619Z,99835.00
2018-09-13T06:35:31.820Z,99842.13
2018-09-13T06:38:01.127Z,99839.36
2018-09-13T06:40:30.416Z,99848.45
2018-09-13T06:42:59.679Z,99839.20
2018-09-13T06:45:29.059Z,99850.91
2018-09-13T06:47:58.312Z,99857.13
2018-09-13T06:50:27.497Z,99859.14
2018-09-13T06:52:56.759Z,99855.54
2018-09-13T06:55:26.032Z,99865.08
2018-09-13T06:57:55.465Z,99867.66
2018-09-13T07:00:24.770Z,99864.23
2018-09-13T07:02:54.068Z,99872.77
2018-09-13T07:05:23.374Z,99869.97
2018-09-13T07:07:52.546Z,99872.97
2018-09-13T07:10:21.645Z,99879.97
2018-09-13T07:12:50.941Z,99880.45
2018-09-13T07:15:20.109Z,99877.47
2018-09-13T07:17:49.344Z,99888.97
2018-09-13T07:20:18.653Z,99884.64
2018-09-13T07:22:47.950Z,99894.30
2018-09-13T07:25:17.263Z,99894.48
2018-09-13T07:27:46.646Z,99905.63
2018-09-13T07:30:16.118Z,99904.48
2018-09-13T07:32:45.441Z,99909.84
2018-09-13T07:35:17.900Z,99916.33
2018-09-13T07:37:47.270Z,99911.96
2018-09-13T07:40:16.727Z,99915.89
2018-09-13T07:42:46.465Z,99917.81
2018-09-13T07:45:15.804Z,99922.63
2018-09-13T07:47:45.180Z,99918.50
2018-09-13T07:50:14.569Z,99938.54
2018-09-13T07:52:44.043Z,99946.45
2018-09-13T07:55:13.290Z,99941.66
2018-09-13T07:57:42.478Z,99950.41
2018-09-13T08:00:11.777Z,99954.25
2018-09-13T08:02:41.559Z,99949.70
2018-09-13T08:05:11.023Z,99959.34
2018-09-13T08:07:40.459Z,99957.69
2018-09-13T08:10:09.782Z,99966.72
2018-09-13T08:12:39.242Z,99967.34
2018-09-13T08:15:08.611Z,99968.54
2018-09-13T08:17:37.899Z,99977.24
2018-09-13T08:20:07.079Z,99975.80
2018-09-13T08:22:36.313Z,99977.72
2018-09-13T08:25:05.716Z,99985.82
2018-09-13T08:27:35.476Z,99997.41
2018-09-13T08:30:04.966Z,99996.99
2018-09-13T08:32:34.268Z,100001.24
2018-09-13T08:35:03.768Z,100006.59
2018-09-13T08:37:33.154Z,100003.02
2018-09-13T08:40:04.018Z,100007.41
2018-09-13T08:42:33.307Z,100012.09
2018-09-13T08:45:02.822Z,100022.05
2018-09-13T08:47:32.406Z,100022.84
2018-09-13T08:50:01.840Z,100020.88
2018-09-13T08:52:31.173Z,100033.45
2018-09-13T08:55:00.607Z,100031.66
2018-09-13T08:57:29.993Z,100023.66
2018-09-13T08:59:59.514Z,100028.97
2018-09-13T09:02:28.685Z,100033.72
2018-09-13T09:04:58.151Z,100039.72
2018-09-13T09:07:27.863Z,100041.89
2018-09-13T09:09:57.307Z,100042.42
2018-09-13T09:12:26.373Z,100046.31
2018-09-13T09:14:55.566Z,100050.70
2018-09-13T09:17:25.058Z,100049.66
2018-09-13T09:19:54.582Z,100049.53
2018-09-13T09:22:23.870Z,100058.66
2018-09-13T09:24:53.523Z,100054.89
2018-09-13T09:27:23.025Z,100061.13
2018-09-13T09:29:52.610Z,100053.03
2018-09-13T09:32:21.786Z,100064.17
2018-09-13T09:34:51.596Z,100061.10
2018-09-13T09:37:20.918Z,100064.97
2018-09-13T09:39:50.430Z,100068.84
2018-09-13T09:42:19.705Z,100074.14
2018-09-13T09:44:49.145Z,100071.22
2018-09-13T09:47:18.541Z,100069.19
2018-09-13T09:49:47.725Z,100078.49
2018-09-13T09:52:17.281Z,100082.61
2018-09-13T09:54:46.844Z,100079.28
2018-09-13T09:57:16.221Z,100090.78
2018-09-13T09:59:45.770Z,100090.64
2018-09-13T10:02:22.038Z,100099.48
2018-09-13T10:04:51.564Z,100098.28
2018-09-13T10:07:21.045Z,100094.02
2018-09-13T10:09:50.383Z,100108.11
2018-09-13T10:12:19.875Z,100104.86
2018-09-13T10:14:54.079Z,100104.02
2018-09-13T10:17:28.143Z,100107.16
2018-09-13T10:20:02.477Z,100116.45
2018-09-13T10:22:36.888Z,100117.16
2018-09-13T10:25:11.158Z,100119.30
2018-09-13T10:27:45.399Z,100122.11
2018-09-13T10:30:19.902Z,100128.19
2018-09-13T10:32:54.401Z,100126.91
2018-09-13T10:35:28.601Z,100125.73
2018-09-13T10:38:03.013Z,100133.55
2018-09-13T10:40:37.500Z,100129.72
2018-09-13T10:43:11.939Z,100136.66
2018-09-13T10:45:46.301Z,100136.33
2018-09-13T10:48:20.782Z,100145.81
2018-09-13T10:50:55.277Z,100136.66
2018-09-13T10:53:29.460Z,100148.81
2018-09-13T10:55:58.882Z,100150.27
2018-09-13T10:58:28.807Z,100151.36
2018-09-13T11:00:58.046Z,100161.64
2018-09-13T11:03:27.375Z,100159.33
2018-09-13T11:05:56.683Z,100158.84
2018-09-13T11:08:25.981Z,100169.36
2018-09-13T11:10:55.326Z,100160.54
2018-09-13T11:14:27.239Z,100170.17
2018-09-13T11:16:56.503Z,100164.45
2018-09-13T11:19:25.757Z,100169.52
2018-09-13T11:21:54.984Z,100177.92
2018-09-13T11:24:24.362Z,100179.37
2018-09-13T11:26:53.851Z,100177.31
2018-09-13T11:29:23.341Z,100183.08
2018-09-13T11:31:52.842Z,100178.87
2018-09-13T11:34:21.996Z,100176.75
2018-09-13T11:36:51.651Z,100180.72
2018-09-13T11:39:20.948Z,100181.34
2018-09-13T11:41:50.100Z,100184.90
2018-09-13T11:44:19.384Z,100180.40
2018-09-13T11:46:48.794Z,100190.63
2018-09-13T11:49:18.078Z,100189.16
2018-09-13T11:51:47.652Z,100185.16
2018-09-13T11:54:16.887Z,100186.17
2018-09-13T11:56:46.338Z,100194.77
2018-09-13T11:59:15.643Z,100202.63
2018-09-13T12:01:45.030Z,100187.48
2018-09-13T12:04:14.342Z,100202.22
2018-09-13T12:10:16.325Z,100201.66
2018-09-13T12:12:45.703Z,100208.92
2018-09-13T12:15:15.013Z,100204.62
2018-09-13T12:17:44.290Z,100206.86
2018-09-13T12:20:13.866Z,100206.70
2018-09-13T12:22:43.227Z,100207.08
2018-09-13T12:25:12.546Z,100208.16
2018-09-13T12:27:41.693Z,100211.04
2018-09-13T12:30:11.280Z,100218.93
2018-09-13T12:32:40.890Z,100206.48
2018-09-13T12:35:10.221Z,100217.28
2018-09-13T12:37:39.680Z,100229.20
2018-09-13T12:40:09.532Z,100228.60
2018-09-13T12:42:38.863Z,100225.62
2018-09-13T12:45:09.372Z,100229.30
2018-09-13T12:47:38.684Z,100225.89
2018-09-13T12:50:08.634Z,100224.82
2018-09-13T12:52:37.921Z,100230.46
2018-09-13T12:55:07.229Z,100222.83
2018-09-13T12:57:36.454Z,100234.84
2018-09-13T13:00:06.092Z,100233.67
2018-09-13T13:02:35.538Z,100228.91
2018-09-13T13:05:04.872Z,100238.31
2018-09-13T13:07:34.308Z,100233.20
2018-09-13T13:10:03.917Z,100235.33
2018-09-13T13:12:33.385Z,100237.50
2018-09-13T13:15:02.743Z,100239.92
2018-09-13T13:17:32.191Z,100244.20
2018-09-13T13:20:01.684Z,100243.97
2018-09-13T13:22:31.152Z,100233.92
2018-09-13T13:25:00.527Z,100234.93
2018-09-13T13:27:29.911Z,100239.75
2018-09-13T13:29:59.104Z,100242.46
2018-09-13T13:32:28.506Z,100241.93
2018-09-13T13:34:57.997Z,100244.25
2018-09-13T13:37:27.433Z,100247.37
2018-09-13T13:39:56.955Z,100246.04
2018-09-13T13:42:26.326Z,100249.72
2018-09-13T13:44:56.055Z,100253.14
2018-09-13T13:47:25.592Z,100250.41
2018-09-13T13:49:55.367Z,100259.61
2018-09-13T13:52:24.845Z,100257.66
2018-09-13T13:54:54.609Z,100265.03
2018-09-13T13:57:24.993Z,100267.39
2018-09-13T13:59:54.558Z,100270.38
2018-09-13T14:02:24.251Z,100271.30
2018-09-13T14:04:53.796Z,100270.48
2018-09-13T14:07:23.085Z,100266.84
2018-09-13T14:09:52.820Z,100266.34
2018-09-13T14:12:22.530Z,100279.05
2018-09-13T14:14:51.943Z,100268.55
2018-09-13T14:17:21.675Z,100273.23
2018-09-13T14:19:51.241Z,100268.63
2018-09-13T14:22:20.991Z,100267.33
2018-09-13T14:24:50.708Z,100272.11
2018-09-13T14:27:20.364Z,100275.20
2018-09-13T14:29:49.923Z,100274.07
2018-09-13T14:32:19.426Z,100270.73
2018-09-13T14:34:49.125Z,100277.91
2018-09-13T14:37:18.892Z,100287.02
2018-09-13T14:39:48.466Z,100289.05
2018-09-13T14:42:18.231Z,100287.47
2018-09-13T14:44:48.089Z,100280.81
2018-09-13T14:47:18.112Z,100288.03
2018-09-13T14:49:49.642Z,100294.54
2018-09-13T14:52:19.841Z,100292.05
2018-09-13T14:54:50.105Z,100291.06
2018-09-13T14:57:19.919Z,100291.90
2018-09-13T14:59:49.597Z,100289.64
2018-09-13T15:02:19.590Z,100290.67
2018-09-13T15:04:49.375Z,100286.08
2018-09-13T15:07:19.334Z,100286.34
2018-09-13T15:09:49.029Z,100292.58
2018-09-13T15:12:18.605Z,100294.54
2018-09-13T15:14:48.269Z,100296.27
2018-09-13T15:17:18.250Z,100297.81
2018-09-13T15:19:48.422Z,100298.20
2018-09-13T15:22:18.260Z,100298.30
2018-09-13T15:24:48.927Z,100306.43
2018-09-13T15:27:18.955Z,100306.67
2018-09-13T15:29:48.721Z,100311.48
2018-09-13T15:32:18.340Z,100311.71
2018-09-13T15:34:48.599Z,100314.17
2018-09-13T15:37:18.232Z,100319.22
2018-09-13T15:39:49.019Z,100319.31
2018-09-13T15:42:18.806Z,100311.56
2018-09-13T15:44:48.927Z,100320.46
2018-09-13T15:47:18.710Z,100328.45
2018-09-13T15:49:48.555Z,100330.23
2018-09-13T15:52:18.369Z,100329.26
2018-09-13T15:54:48.341Z,100326.98
2018-09-13T15:57:18.487Z,100328.19
2018-09-13T15:59:47.979Z,100331.02
2018-09-13T16:02:17.834Z,100325.03
2018-09-13T16:04:47.910Z,100331.95
2018-09-13T16:07:17.615Z,100331.87
2018-09-13T16:09:47.314Z,100337.75
2018-09-13T16:12:16.892Z,100338.23
2018-09-13T16:14:46.786Z,100338.25
2018-09-13T16:17:17.192Z,100342.53
2018-09-13T16:19:47.151Z,100344.19
2018-09-13T16:22:17.322Z,100341.63
2018-09-13T16:24:47.285Z,100349.02
2018-09-13T16:27:17.837Z,100353.68
2018-09-13T16:29:47.664Z,100353.44
2018-09-13T16:32:20.816Z,100353.58
2018-09-13T16:34:51.156Z,100352.56
2018-09-13T16:37:25.791Z,100355.16
2018-09-13T16:40:00.984Z,100351.12
2018-09-13T16:42:43.017Z,100351.16
2018-09-13T16:45:12.713Z,100354.40
2018-09-13T16:47:47.273Z,100357.39
2018-09-13T16:50:16.947Z,100361.12
2018-09-13T16:52:49.627Z,100359.23
2018-09-13T16:55:18.867Z,100360.78
2018-09-13T16:57:48.171Z,100359.91
2018-09-13T17:00:17.829Z,100370.67
2018-09-13T17:02:47.721Z,100365.36
2018-09-13T17:05:17.274Z,100363.95
2018-09-13T17:07:46.651Z,100365.80
2018-09-13T17:10:15.992Z,100364.59
2018-09-13T17:12:45.631Z,100360.26
2018-09-13T17:15:15.110Z,100364.52
2018-09-13T17:17:44.657Z,100371.72
2018-09-13T17:20:14.216Z,100376.05
2018-09-13T17:22:43.818Z,100369.13
2018-09-13T17:25:13.068Z,100373.77
2018-09-13T17:27:42.366Z,100373.31
2018-09-13T17:30:11.321Z,100375.27
2018-09-13T17:32:40.285Z,100376.89
2018-09-13T17:35:09.057Z,100378.64
2018-09-13T17:37:38.071Z,100375.34
2018-09-13T17:40:07.118Z,100374.50
2018-09-13T17:42:36.162Z,100379.72
2018-09-13T17:45:05.173Z,100379.07
2018-09-13T17:47:34.017Z,100376.84
2018-09-13T17:50:02.840Z,100381.50
2018-09-13T17:52:31.654Z,100376.73
2018-09-13T17:55:00.660Z,100382.48
2018-09-13T17:57:29.454Z,100382.80
2018-09-13T17:59:58.057Z,100383.59
2018-09-13T18:02:26.854Z,100386.07
2018-09-13T18:04:55.988Z,100385.41
2018-09-13T18:07:25.447Z,100362.55
2018-09-13T18:09:54.237Z,100392.81
2018-09-13T18:12:23.278Z,100400.82
2018-09-13T18:14:52.294Z,100402.52
2018-09-13T18:17:21.067Z,100406.05
2018-09-13T18:19:49.848Z,100415.62
2018-09-13T18:22:18.458Z,100409.64
2018-09-13T18:24:47.350Z,100363.22
2018-09-13T18:27:16.390Z,100413.41
2018-09-13T18:29:45.489Z,100419.95
2018-09-13T18:32:14.328Z,100415.53
2018-09-13T18:34:43.180Z,100423.63
2018-09-13T18:37:11.894Z,100425.83
2018-09-13T18:39:40.491Z,100427.55
2018-09-13T18:42:09.376Z,100435.64
2018-09-13T18:44:38.160Z,100427.59
2018-09-13T18:47:06.874Z,100430.95
2018-09-13T18:49:35.660Z,100424.84
2018-09-13T18:52:04.588Z,100430.41
2018-09-13T18:54:33.552Z,100435.09
2018-09-13T18:57:02.304Z,100438.20
2018-09-13T18:59:31.210Z,100443.41
2018-09-13T19:01:59.906Z,100438.58
2018-09-13T19:04:28.689Z,100440.75
2018-09-13T19:06:57.664Z,100324.91
2018-09-13T19:09:26.701Z,100444.86
2018-09-13T19:11:55.471Z,100439.58
2018-09-13T19:14:24.284Z,100419.84
2018-09-13T19:16:53.074Z,100438.49
2018-09-13T19:19:22.060Z,100443.68
2018-09-13T19:21:50.975Z,100438.14
2018-09-13T19:24:20.039Z,100438.98
2018-09-13T19:26:49.035Z,100436.80
2018-09-13T19:29:17.914Z,100441.13
2018-09-13T19:31:46.927Z,100442.09
2018-09-13T19:34:15.801Z,100435.12
2018-09-13T19:36:44.494Z,100434.14
2018-09-13T19:39:14.001Z,100433.30
2018-09-13T19:41:43.447Z,100433.04
2018-09-13T19:44:12.343Z,100436.67
2018-09-13T19:46:41.242Z,100438.80
2018-09-13T19:49:09.875Z,100441.92
2018-09-13T19:51:38.841Z,100437.00
2018-09-13T19:54:07.607Z,100438.05
2018-09-13T19:56:36.323Z,100442.48
2018-09-13T19:59:05.068Z,100438.74
2018-09-13T20:01:34.079Z,100436.83
2018-09-13T20:04:02.828Z,100432.71
2018-09-13T20:06:31.910Z,100445.07
2018-09-13T20:09:00.713Z,100439.30
2018-09-13T20:11:29.489Z,100440.72
2018-09-13T20:13:58.667Z,100440.13
2018-09-13T20:16:28.062Z,100437.07
2018-09-13T20:18:56.884Z,100440.38
2018-09-13T20:21:25.882Z,100445.75
2018-09-13T20:23:55.081Z,100442.17
2018-09-13T20:26:23.973Z,100446.02
2018-09-13T20:28:52.997Z,100448.77
2018-09-13T20:31:21.677Z,100454.16
2018-09-13T20:33:50.521Z,100459.67
2018-09-13T20:36:19.157Z,100460.22
2018-09-13T20:38:48.039Z,100456.34
2018-09-13T20:41:16.743Z,100461.72
2018-09-13T20:43:45.582Z,100465.52
2018-09-13T20:46:14.282Z,100465.04
2018-09-13T20:48:43.124Z,100463.35
2018-09-13T20:51:12.012Z,100470.55
2018-09-13T20:53:40.788Z,100472.18
2018-09-13T20:56:09.402Z,100474.31
2018-09-13T20:58:38.388Z,100475.16
2018-09-13T21:01:07.493Z,100478.00
2018-09-13T21:03:36.217Z,100475.49
2018-09-13T21:06:05.019Z,100475.22
2018-09-13T21:08:33.981Z,100479.72
2018-09-13T21:11:02.905Z,100478.97
2018-09-13T21:13:32.211Z,100475.08
2018-09-13T21:16:01.011Z,100476.63
2018-09-13T21:18:29.807Z,100475.73
2018-09-13T21:20:58.567Z,100476.69
2018-09-13T21:23:27.538Z,100485.17
2018-09-13T21:25:56.828Z,100482.62
2018-09-13T21:28:25.579Z,100481.41
2018-09-13T21:30:54.702Z,100483.44
2018-09-13T21:33:23.429Z,100488.53
2018-09-13T21:35:52.260Z,100483.69
2018-09-13T21:38:21.124Z,100484.86
2018-09-13T21:40:49.934Z,100487.31
2018-09-13T21:43:18.755Z,100484.53
2018-09-13T21:45:47.542Z,100487.48
2018-09-13T21:48:16.275Z,100484.48
2018-09-13T21:50:45.331Z,100486.69
2018-09-13T21:53:14.101Z,100494.87
2018-09-13T21:55:43.681Z,100492.52
2018-09-13T21:58:12.475Z,100502.91
2018-09-13T22:00:41.244Z,100502.86
2018-09-13T22:03:10.063Z,100498.95
2018-09-13T22:05:38.961Z,100501.67
2018-09-13T22:08:07.624Z,100502.55
2018-09-13T22:10:36.692Z,100511.39
2018-09-13T22:13:05.325Z,100502.87
2018-09-13T22:15:34.077Z,100509.45
2018-09-13T22:18:02.850Z,100501.27
2018-09-13T22:20:31.944Z,100504.66
2018-09-13T22:23:00.725Z,100508.61
2018-09-13T22:25:29.766Z,100506.06
2018-09-13T22:27:58.427Z,100505.69
2018-09-13T22:30:27.219Z,100510.33
2018-09-13T22:32:56.154Z,100505.06
2018-09-13T22:35:25.400Z,100510.39
2018-09-13T22:37:54.244Z,100515.84
2018-09-13T22:40:23.859Z,100528.28
2018-09-13T22:42:52.649Z,100469.45
2018-09-13T22:45:21.790Z,100534.12
2018-09-13T22:47:50.664Z,100532.36
2018-09-13T22:50:19.504Z,100529.06
2018-09-13T22:52:48.209Z,100522.79
2018-09-13T22:55:17.262Z,100519.14
2018-09-13T22:57:46.118Z,100513.51
2018-09-13T23:00:15.326Z,100523.19
2018-09-13T23:02:48.416Z,100511.34
2018-09-13T23:05:18.366Z,100504.67
2018-09-13T23:07:47.581Z,100510.66
2018-09-13T23:10:17.221Z,100511.51
2018-09-13T23:12:46.262Z,100515.45
2018-09-13T23:15:15.112Z,100510.57
2018-09-13T23:17:44.493Z,100514.61
2018-09-13T23:20:13.425Z,100511.44
2018-09-13T23:22:42.147Z,100522.35
2018-09-13T23:25:10.919Z,100520.66
2018-09-13T23:27:39.950Z,100516.80
2018-09-13T23:30:08.924Z,100527.33
2018-09-13T23:32:37.632Z,100517.27
2018-09-13T23:35:06.533Z,100517.02
2018-09-13T23:37:35.243Z,100518.67
2018-09-13T23:40:04.165Z,100523.22
2018-09-13T23:42:32.938Z,100510.63
2018-09-13T23:45:01.628Z,100513.80
2018-09-13T23:47:31.052Z,100507.44
2018-09-13T23:49:59.709Z,100503.30
2018-09-13T23:52:28.857Z,100502.75
2018-09-13T23:54:58.271Z,100497.20
2018-09-13T23:57:27.032Z,100489.52
2018-09-13T23:59:55.763Z,100492.62
